Time;durP1;ratioP1;P1;durP2;ratioP2;P2;SDS_P1;SDS_P2;PMS_P1;PMS_P2;Temp;Humidity;BMP_temperature;BMP_pressure;BME280_temperature;BME280_humidity;BME280_pressure;Samples;Min_cycle;Max_cycle;Signal;HPM_P1;HPM_P2
2023/02/06 00:02:15;;;;;;;2.03;1.47;;;-5.10;99.90;-4.40;98433.00;;;;5072333;28;20532;-72
2023/02/06 00:05:04;;;;;;;3.10;2.07;;;-5.10;99.90;-4.70;98431.00;;;;5069884;28;20414;-72
2023/02/06 00:07:53;;;;;;;4.53;2.37;;;-5.10;99.90;-4.80;98429.00;;;;5070134;28;20427;-73
2023/02/06 00:10:42;;;;;;;2.70;2.50;;;-5.20;99.90;-5.00;98420.00;;;;5069754;28;20450;-71
2023/02/06 00:13:30;;;;;;;1.97;1.87;;;-5.20;99.90;-5.00;98426.00;;;;5068609;28;20466;-72
2023/02/06 00:16:22;;;;;;;5.10;2.73;;;-5.30;99.90;-5.20;98419.00;;;;5070736;28;20430;-71
2023/02/06 00:19:12;;;;;;;2.27;1.37;;;-5.40;99.90;-5.30;98426.00;;;;5069183;28;20426;-69
2023/02/06 00:22:01;;;;;;;1.73;1.63;;;-5.50;99.90;-5.10;98427.00;;;;5069778;28;20446;-73
2023/02/06 00:24:49;;;;;;;0.97;0.97;;;-5.50;99.90;-5.20;98421.00;;;;5071699;28;20431;-74
2023/02/06 00:27:38;;;;;;;2.10;1.80;;;-5.60;99.90;-5.50;98421.00;;;;5071810;28;20476;-71
2023/02/06 00:30:27;;;;;;;1.73;1.63;;;-5.60;99.90;-5.20;98424.00;;;;5061811;28;20471;-71
2023/02/06 00:33:16;;;;;;;2.50;1.70;;;-5.60;99.90;-5.00;98430.00;;;;5069717;28;20438;-72
2023/02/06 00:36:07;;;;;;;1.47;1.33;;;-5.60;99.90;-4.80;98444.00;;;;5072301;28;20518;-72
2023/02/06 00:38:56;;;;;;;6.90;1.63;;;-5.50;99.90;-4.80;98448.00;;;;5064633;28;20484;-73
2023/02/06 00:41:45;;;;;;;2.97;2.10;;;-5.50;99.90;-4.80;98440.00;;;;5069510;28;20453;-72
2023/02/06 00:44:33;;;;;;;1.80;1.70;;;-5.40;99.90;-4.90;98449.00;;;;5071030;28;20977;-72
2023/02/06 00:47:22;;;;;;;2.27;1.93;;;-5.40;99.90;-5.00;98458.00;;;;5071233;28;20426;-72
2023/02/06 00:50:11;;;;;;;1.20;1.20;;;-5.50;99.90;-5.40;98444.00;;;;5066869;28;20949;-74
2023/02/06 00:53:01;;;;;;;1.27;1.27;;;-5.60;99.90;-5.50;98458.00;;;;5058284;28;20461;-72
2023/02/06 00:55:50;;;;;;;2.10;1.27;;;-5.70;99.90;-5.40;98457.00;;;;5070403;28;20476;-72
2023/02/06 00:58:38;;;;;;;0.77;0.77;;;-5.70;99.90;-5.60;98474.00;;;;5069043;28;20427;-72
2023/02/06 01:01:27;;;;;;;2.20;1.70;;;-5.70;99.90;-5.50;98464.00;;;;5069905;28;20419;-71
2023/02/06 01:04:16;;;;;;;0.88;0.88;;;-4.90;99.90;-5.70;98465.00;;;;5067708;28;20449;-73
2023/02/06 01:07:05;;;;;;;0.70;0.70;;;-5.80;99.90;-5.90;98467.00;;;;5070313;28;20207;-73
2023/02/06 01:09:55;;;;;;;1.95;1.33;;;-4.10;99.90;-5.50;98459.00;;;;5070395;28;20423;-71
2023/02/06 01:12:44;;;;;;;1.83;1.73;;;-5.80;99.90;-5.60;98467.00;;;;5069285;28;20781;-70
2023/02/06 01:15:32;;;;;;;1.50;1.40;;;-5.80;99.90;-5.60;98468.00;;;;5055727;28;20446;-73
2023/02/06 01:18:21;;;;;;;2.90;1.80;;;-5.70;99.90;-5.80;98468.00;;;;5069345;28;20207;-69
2023/02/06 01:21:11;;;;;;;1.00;1.00;;;-5.90;99.90;-5.40;98470.00;;;;5070380;28;20434;-73
2023/02/06 01:24:00;;;;;;;1.08;1.08;;;-5.90;99.90;-5.30;98473.00;;;;5070854;28;20210;-73
2023/02/06 01:26:50;;;;;;;3.42;1.50;;;-5.90;99.90;-5.30;98475.00;;;;5069824;28;20249;-73
2023/02/06 01:29:38;;;;;;;2.45;0.90;;;-5.80;99.90;-5.40;98483.00;;;;5069612;28;20605;-74
2023/02/06 01:32:27;;;;;;;1.90;1.80;;;-5.70;99.90;-5.30;98477.00;;;;5073150;28;20268;-72
2023/02/06 01:35:16;;;;;;;1.60;1.50;;;-5.80;99.90;-5.20;98493.00;;;;5075326;28;20426;-74
2023/02/06 01:38:04;;;;;;;1.43;1.33;;;-5.80;99.90;-5.00;98496.00;;;;5075129;28;20422;-73
2023/02/06 01:40:57;;;;;;;1.80;1.70;;;-5.80;99.90;-5.00;98489.00;;;;5074398;28;20480;-72
2023/02/06 01:44:11;;;;;;;2.38;1.23;;;-5.70;99.90;-5.00;98485.00;;;;5074719;28;20773;-73
2023/02/06 01:47:00;;;;;;;1.60;1.50;;;-5.70;99.90;-5.00;98484.00;;;;5077309;28;20599;-74
2023/02/06 01:49:50;;;;;;;0.80;0.80;;;-5.60;99.90;-5.30;98473.00;;;;5075488;28;20557;-74
2023/02/06 01:52:39;;;;;;;1.33;1.33;;;-5.70;99.90;-5.10;98483.00;;;;5072368;28;20231;-74
2023/02/06 01:55:28;;;;;;;0.88;0.88;;;-5.30;99.90;-5.10;98488.00;;;;5069331;28;20426;-74
2023/02/06 01:58:26;;;;;;;1.08;0.95;;;-5.70;99.90;-5.10;98489.00;;;;5072451;28;20196;-74
2023/02/06 02:01:16;;;;;;;1.83;1.73;;;-5.40;99.90;-5.40;98473.00;;;;5072788;28;20211;-74
2023/02/06 02:04:09;;;;;;;1.40;1.30;;;-5.70;99.90;-5.90;98475.00;;;;5072908;28;20485;-74
2023/02/06 02:07:07;;;;;;;0.90;0.90;;;-5.80;99.90;-6.00;98472.00;;;;5072426;28;20422;-74
2023/02/06 02:09:56;;;;;;;1.33;1.23;;;-6.00;99.90;-5.90;98480.00;;;;5071945;28;20843;-74
2023/02/06 02:12:44;;;;;;;5.60;2.42;;;-6.10;99.90;-6.10;98477.00;;;;5071397;28;20898;-71
2023/02/06 02:15:44;;;;;;;1.20;1.20;;;-6.20;99.90;-6.40;98471.00;;;;5072983;28;20739;-74
2023/02/06 02:19:04;;;;;;;1.35;1.10;;;-6.30;99.90;-6.10;98479.00;;;;5072001;28;20204;-71
2023/02/06 02:22:30;;;;;;;1.98;1.88;;;-5.50;99.90;-6.00;98477.00;;;;5072800;28;20244;-72
2023/02/06 02:26:09;;;;;;;1.10;0.88;;;-6.30;99.90;-5.50;98474.00;;;;5072495;28;20195;-72
2023/02/06 02:29:38;;;;;;;0.98;0.90;;;-6.30;99.90;-5.70;98463.00;;;;5070616;28;20204;-71
2023/02/06 02:32:57;;;;;;;1.87;1.77;;;-5.90;99.90;-6.10;98464.00;;;;5067447;28;20227;-72
2023/02/06 02:35:53;;;;;;;1.40;1.30;;;-5.30;99.90;-6.20;98457.00;;;;5073541;28;20488;-71
2023/02/06 02:38:55;;;;;;;4.53;1.60;;;-6.30;99.90;-6.20;98449.00;;;;5064554;28;20675;-70
2023/02/06 02:41:49;;;;;;;1.02;1.02;;;-6.50;99.90;-6.40;98451.00;;;;5071750;28;20256;-70
2023/02/06 02:44:46;;;;;;;1.17;1.08;;;-4.80;99.90;-6.00;98458.00;;;;5063796;28;20211;-71
2023/02/06 02:47:49;;;;;;;3.22;2.00;;;-6.50;99.90;-5.80;98470.00;;;;5072169;28;20207;-72
2023/02/06 02:50:39;;;;;;;0.95;0.95;;;-6.40;99.90;-6.20;98459.00;;;;5072058;28;20203;-71
2023/02/06 02:53:29;;;;;;;1.95;1.63;;;-6.40;99.90;-6.00;98467.00;;;;5072413;28;20231;-71
2023/02/06 02:56:21;;;;;;;0.60;0.60;;;-6.50;99.90;-5.90;98470.00;;;;5071327;28;20265;-70
2023/02/06 02:59:15;;;;;;;6.20;1.65;;;-6.50;99.90;-5.90;98471.00;;;;5071299;28;20203;-70
2023/02/06 03:02:08;;;;;;;1.38;1.23;;;-6.40;99.90;-6.10;98462.00;;;;5071601;28;20703;-71
2023/02/06 03:05:03;;;;;;;0.80;0.80;;;-6.50;99.90;-6.00;98467.00;;;;5071562;28;20204;-71
2023/02/06 03:08:10;;;;;;;1.23;1.23;;;-6.50;99.90;-5.90;98474.00;;;;5070741;28;20204;-70
2023/02/06 03:11:09;;;;;;;2.90;1.20;;;-6.40;99.90;-5.70;98467.00;;;;5071691;28;20200;-72
2023/02/06 03:14:03;;;;;;;1.13;1.05;;;-6.40;99.90;-6.00;98464.00;;;;5059171;28;20219;-72
2023/02/06 03:16:59;;;;;;;1.93;1.67;;;-6.40;99.90;-6.00;98464.00;;;;5071959;28;20214;-73
2023/02/06 03:19:53;;;;;;;0.70;0.70;;;-6.40;99.90;-6.20;98467.00;;;;5071043;28;20426;-73
2023/02/06 03:22:44;;;;;;;1.75;1.65;;;-6.40;99.90;-6.00;98463.00;;;;5071443;28;20450;-72
2023/02/06 03:25:38;;;;;;;1.40;1.33;;;-6.40;99.90;-6.20;98478.00;;;;5071456;28;20835;-70
2023/02/06 03:28:34;;;;;;;1.23;1.23;;;-6.50;99.90;-6.50;98468.00;;;;5069694;28;20200;-71
2023/02/06 03:31:29;;;;;;;0.68;0.68;;;-6.60;99.90;-6.80;98475.00;;;;5070634;28;20232;-72
2023/02/06 03:34:23;;;;;;;4.00;1.30;;;-6.70;99.90;-6.80;98466.00;;;;5072771;28;20208;-70
2023/02/06 03:37:12;;;;;;;1.58;1.48;;;-6.80;99.90;-6.90;98468.00;;;;5070452;28;20281;-72
2023/02/06 03:40:02;;;;;;;0.80;0.80;;;-6.90;99.90;-6.90;98476.00;;;;5062728;28;20196;-72
2023/02/06 03:42:56;;;;;;;1.67;1.58;;;-6.90;99.90;-7.00;98462.00;;;;5070624;28;20817;-73
2023/02/06 03:45:49;;;;;;;1.00;1.00;;;-7.00;99.90;-7.00;98477.00;;;;5071298;28;20204;-72
2023/02/06 03:48:42;;;;;;;1.10;1.10;;;-7.10;99.90;-6.70;98480.00;;;;5070486;28;20690;-73
2023/02/06 03:51:36;;;;;;;1.17;1.08;;;-7.00;99.90;-6.40;98491.00;;;;5071245;28;20203;-73
2023/02/06 03:54:27;;;;;;;1.15;0.82;;;-7.00;99.90;-6.50;98487.00;;;;5069101;28;20199;-73
2023/02/06 03:57:19;;;;;;;1.08;1.08;;;-6.90;99.90;-6.60;98474.00;;;;5071284;28;20262;-72
2023/02/06 04:00:10;;;;;;;1.02;1.02;;;-4.90;99.90;-6.70;98474.00;;;;5064022;28;20206;-72
2023/02/06 04:03:01;;;;;;;0.85;0.85;;;-6.90;99.90;-6.40;98481.00;;;;5070473;28;20714;-72
2023/02/06 04:05:49;;;;;;;1.20;1.10;;;-6.90;99.90;-6.40;98480.00;;;;5069592;28;20196;-72
2023/02/06 04:08:38;;;;;;;0.85;0.85;;;-6.80;99.90;-6.20;98484.00;;;;5069156;28;20206;-71
2023/02/06 04:11:27;;;;;;;0.80;0.80;;;-6.80;99.90;-6.40;98477.00;;;;5070409;28;20624;-72
2023/02/06 04:14:15;;;;;;;1.45;1.35;;;-6.80;99.90;-6.60;98486.00;;;;5071641;28;20858;-72
2023/02/06 04:17:05;;;;;;;2.15;2.05;;;-6.80;99.90;-6.30;98488.00;;;;5070143;28;20208;-72
2023/02/06 04:19:55;;;;;;;1.20;1.10;;;-6.80;99.90;-6.20;98487.00;;;;5069629;28;20270;-72
2023/02/06 04:22:44;;;;;;;3.90;1.60;;;-6.80;99.90;-6.60;98488.00;;;;5069706;28;20298;-72
2023/02/06 04:25:33;;;;;;;1.27;1.25;;;-6.80;99.90;-6.70;98482.00;;;;5058600;28;20724;-71
2023/02/06 04:28:22;;;;;;;0.80;0.80;;;-6.80;99.90;-7.20;98469.00;;;;5069064;28;20199;-71
2023/02/06 04:31:10;;;;;;;2.15;1.45;;;-7.00;99.90;-7.10;98480.00;;;;5070534;28;20195;-72
2023/02/06 04:33:59;;;;;;;1.95;1.30;;;-7.10;99.90;-6.90;98482.00;;;;5071347;28;20228;-72
2023/02/06 04:36:49;;;;;;;1.10;1.10;;;-7.10;99.90;-6.70;98482.00;;;;5063534;28;20207;-72
2023/02/06 04:39:39;;;;;;;1.48;1.30;;;-7.10;99.90;-6.90;98463.00;;;;5069345;28;20196;-72
2023/02/06 04:42:29;;;;;;;2.10;1.92;;;-4.90;99.90;-7.00;98473.00;;;;5069845;28;20240;-72
2023/02/06 04:45:17;;;;;;;1.10;1.10;;;-7.10;99.90;-6.90;98462.00;;;;5069652;28;20204;-72
2023/02/06 04:48:06;;;;;;;1.50;1.40;;;-7.10;99.90;-6.80;98466.00;;;;5068727;28;20578;-72
2023/02/06 04:50:55;;;;;;;1.80;1.70;;;-7.10;99.90;-6.90;98446.00;;;;5067833;28;20228;-72
2023/02/06 04:53:45;;;;;;;1.70;1.20;;;-7.10;99.90;-6.80;98463.00;;;;5069868;28;20231;-71
2023/02/06 04:56:34;;;;;;;0.88;0.88;;;-7.10;99.90;-6.60;98454.00;;;;5069513;28;20196;-71
2023/02/06 04:59:23;;;;;;;2.58;1.58;;;-7.00;99.90;-6.60;98456.00;;;;5069038;28;20609;-72
2023/02/06 05:02:11;;;;;;;1.00;1.00;;;-7.00;99.90;-6.70;98452.00;;;;5068464;28;20227;-70
2023/02/06 05:05:00;;;;;;;1.17;0.90;;;-7.00;99.90;-6.70;98448.00;;;;5069753;28;20199;-71
2023/02/06 05:07:49;;;;;;;0.98;0.98;;;-6.90;99.90;-6.70;98447.00;;;;5068567;28;20200;-71
2023/02/06 05:10:39;;;;;;;1.35;1.25;;;-7.00;99.90;-6.80;98441.00;;;;5068969;28;20913;-71
2023/02/06 05:13:27;;;;;;;0.82;0.82;;;-7.00;99.90;-6.80;98446.00;;;;5067075;28;20230;-71
2023/02/06 05:16:17;;;;;;;0.57;0.57;;;-7.00;99.90;-6.80;98450.00;;;;5065752;28;20192;-71
2023/02/06 05:19:06;;;;;;;1.00;0.98;;;-7.00;99.90;-6.60;98465.00;;;;5063346;28;20605;-71
2023/02/06 05:21:54;;;;;;;2.35;2.15;;;-7.00;99.90;-6.70;98470.00;;;;5069009;28;20223;-71
2023/02/06 05:24:43;;;;;;;0.70;0.70;;;-7.00;99.90;-7.20;98461.00;;;;5069261;28;20219;-73
2023/02/06 05:27:33;;;;;;;0.85;0.82;;;-7.10;99.90;-7.10;98477.00;;;;5067786;28;20691;-70
2023/02/06 05:30:22;;;;;;;1.42;1.35;;;-7.20;99.90;-7.00;98466.00;;;;5068712;28;20898;-71
2023/02/06 05:33:11;;;;;;;2.70;1.25;;;-7.20;99.90;-6.90;98467.00;;;;5067769;28;20310;-72
2023/02/06 05:36:02;;;;;;;2.15;1.50;;;-7.20;99.90;-6.50;98470.00;;;;5070768;28;20200;-70
2023/02/06 05:38:51;;;;;;;1.40;1.30;;;-7.10;99.90;-6.30;98477.00;;;;5062671;28;20203;-71
2023/02/06 05:41:40;;;;;;;2.80;1.52;;;-7.00;99.90;-6.20;98482.00;;;;5070174;28;20207;-71
2023/02/06 05:44:30;;;;;;;1.02;1.02;;;-6.70;99.90;-6.60;98470.00;;;;5062869;28;20200;-71
2023/02/06 05:47:19;;;;;;;0.85;0.85;;;-5.30;99.90;-6.60;98470.00;;;;5065459;28;20196;-71
2023/02/06 05:50:08;;;;;;;1.17;1.10;;;-6.90;99.90;-6.60;98454.00;;;;5065263;28;20218;-72
2023/02/06 05:52:57;;;;;;;1.63;1.52;;;-6.90;99.90;-7.00;98456.00;;;;5053099;28;20231;-72
2023/02/06 05:55:46;;;;;;;1.40;1.17;;;-7.00;99.90;-6.80;98461.00;;;;5072088;28;20688;-72
2023/02/06 05:58:35;;;;;;;4.97;3.65;;;-7.00;99.90;-6.50;98455.00;;;;5066469;28;20321;-71
2023/02/06 06:01:27;;;;;;;3.00;2.67;;;-7.00;99.90;-6.50;98458.00;;;;5071381;28;20583;-70
2023/02/06 06:04:16;;;;;;;3.80;3.13;;;-7.00;99.90;-6.60;98450.00;;;;5072988;28;20204;-70
2023/02/06 06:07:04;;;;;;;5.15;3.10;;;-7.00;99.90;-6.60;98452.00;;;;5066479;28;20237;-71
2023/02/06 06:09:53;;;;;;;5.60;3.22;;;-7.00;99.90;-6.80;98441.00;;;;5066911;28;20200;-72
2023/02/06 06:12:42;;;;;;;16.17;7.53;;;-7.00;99.90;-6.70;98438.00;;;;5063935;28;20227;-72
2023/02/06 06:15:30;;;;;;;11.05;7.03;;;-6.90;99.90;-6.50;98444.00;;;;5068195;28;20208;-72
2023/02/06 06:18:21;;;;;;;5.35;4.88;;;-7.00;99.90;-6.50;98458.00;;;;5070882;28;20258;-72
2023/02/06 06:21:10;;;;;;;4.75;3.25;;;-6.90;99.90;-6.40;98440.00;;;;5070498;28;20196;-71
2023/02/06 06:23:59;;;;;;;4.53;4.15;;;-6.90;99.90;-6.40;98444.00;;;;5070212;28;20702;-72
2023/02/06 06:26:47;;;;;;;5.50;2.28;;;-6.90;99.90;-6.20;98454.00;;;;5071124;28;20262;-72
2023/02/06 06:29:36;;;;;;;2.45;2.03;;;-6.80;99.90;-6.10;98452.00;;;;5072311;28;20203;-72
2023/02/06 06:32:25;;;;;;;2.97;1.75;;;-6.80;99.90;-6.20;98451.00;;;;5077935;28;20220;-72
2023/02/06 06:35:15;;;;;;;3.70;1.95;;;-6.70;99.90;-6.30;98458.00;;;;5072114;28;20210;-72
2023/02/06 06:38:04;;;;;;;1.35;1.33;;;-6.70;99.90;-6.70;98455.00;;;;5071516;28;20219;-69
2023/02/06 06:40:53;;;;;;;1.70;1.60;;;-6.70;99.90;-7.00;98454.00;;;;5071732;28;20200;-73
2023/02/06 06:43:42;;;;;;;1.65;1.63;;;-6.90;99.90;-7.00;98454.00;;;;5072212;28;20259;-70
2023/02/06 06:46:30;;;;;;;1.60;1.50;;;-7.00;99.90;-6.80;98455.00;;;;5070890;28;20237;-70
2023/02/06 06:49:19;;;;;;;1.02;1.02;;;-7.00;99.90;-6.90;98458.00;;;;5069344;28;20257;-72
2023/02/06 06:52:09;;;;;;;1.95;1.25;;;-7.00;99.90;-6.70;98465.00;;;;5071637;28;20212;-70
2023/02/06 06:55:10;;;;;;;1.33;1.27;;;-7.00;99.90;-7.20;98453.00;;;;5068118;28;20228;-70
2023/02/06 06:57:59;;;;;;;2.28;2.05;;;-7.10;99.90;-6.90;98447.00;;;;5070772;28;20203;-72
2023/02/06 07:00:48;;;;;;;8.35;1.88;;;-7.10;99.90;-6.80;98452.00;;;;5070290;28;20663;-71
2023/02/06 07:03:36;;;;;;;4.63;1.75;;;-7.10;99.90;-6.60;98448.00;;;;5070775;28;20231;-72
2023/02/06 07:06:25;;;;;;;4.03;2.00;;;-7.10;99.90;-6.70;98445.00;;;;5070577;28;20230;-72
2023/02/06 07:09:16;;;;;;;2.63;2.15;;;-7.00;99.90;-6.50;98445.00;;;;5068520;28;20219;-72
2023/02/06 07:12:06;;;;;;;2.72;2.35;;;-7.00;99.90;-6.10;98443.00;;;;5071085;28;20219;-72
2023/02/06 07:14:54;;;;;;;3.30;3.10;;;-6.90;99.90;-6.20;98445.00;;;;5069255;28;20238;-72
2023/02/06 07:17:43;;;;;;;3.85;3.20;;;-6.80;99.90;-6.20;98443.00;;;;5068232;28;20710;-72
2023/02/06 07:20:32;;;;;;;2.55;2.35;;;-6.80;99.90;-6.10;98445.00;;;;5070496;28;20203;-72
2023/02/06 07:23:20;;;;;;;3.15;2.92;;;-6.70;99.90;-6.10;98438.00;;;;5071315;28;20224;-72
2023/02/06 07:26:11;;;;;;;4.20;2.95;;;-6.60;99.90;-5.70;98430.00;;;;5071057;28;20306;-72
2023/02/06 07:28:59;;;;;;;2.40;2.08;;;-6.10;99.90;-5.60;98427.00;;;;5058934;28;20701;-72
2023/02/06 07:31:48;;;;;;;7.15;6.32;;;-6.30;99.90;-6.10;98426.00;;;;5071441;28;20226;-69
2023/02/06 07:34:37;;;;;;;2.03;1.83;;;-6.30;99.90;-5.80;98431.00;;;;5072925;28;20223;-70
2023/02/06 07:37:26;;;;;;;2.20;2.00;;;-6.20;99.90;-5.60;98438.00;;;;5070317;28;20196;-70
2023/02/06 07:40:15;;;;;;;4.72;3.58;;;-6.10;99.90;-5.30;98442.00;;;;5071559;28;20204;-72
2023/02/06 07:43:06;;;;;;;1.70;1.70;;;-6.00;99.90;-5.00;98436.00;;;;5069308;28;20231;-71
2023/02/06 07:45:58;;;;;;;3.13;1.30;;;-6.00;99.90;-4.60;98462.00;;;;5066758;28;20254;-71
2023/02/06 07:48:47;;;;;;;1.65;1.55;;;-5.70;99.90;-4.70;98458.00;;;;5070296;28;20238;-71
2023/02/06 07:51:36;;;;;;;2.57;2.37;;;-5.60;99.90;-4.60;98448.00;;;;5070573;28;20293;-71
2023/02/06 07:54:24;;;;;;;1.20;1.10;;;-5.50;99.90;-4.70;98461.00;;;;5070802;28;20469;-71
2023/02/06 07:57:13;;;;;;;3.50;2.57;;;-5.40;99.90;-4.60;98471.00;;;;5069729;28;20430;-71
2023/02/06 08:00:05;;;;;;;1.80;1.70;;;-5.40;99.90;-4.20;98464.00;;;;5062956;28;20426;-71
2023/02/06 08:02:54;;;;;;;2.60;2.47;;;-5.20;99.90;-4.10;98465.00;;;;5065020;28;20451;-71
2023/02/06 08:05:43;;;;;;;3.73;3.03;;;-5.10;99.90;-3.80;98471.00;;;;5071128;28;20422;-70
2023/02/06 08:08:31;;;;;;;5.50;3.57;;;-5.00;99.90;-3.70;98470.00;;;;5069662;28;20435;-71
2023/02/06 08:11:23;;;;;;;3.70;3.33;;;-4.30;99.90;-3.60;98468.00;;;;5070352;28;20415;-71
2023/02/06 08:14:13;;;;;;;3.30;2.70;;;-4.70;99.90;-3.40;98472.00;;;;5057314;28;20482;-72
2023/02/06 08:17:03;;;;;;;4.57;3.67;;;-4.50;99.90;-3.30;98471.00;;;;5070787;28;20423;-71
2023/02/06 08:19:51;;;;;;;3.27;2.70;;;-4.40;99.90;-3.00;98475.00;;;;5069333;28;20499;-72
2023/02/06 08:22:40;;;;;;;2.63;2.43;;;-4.20;99.90;-2.80;98473.00;;;;5070235;28;20835;-71
2023/02/06 08:25:29;;;;;;;3.03;2.00;;;-4.10;99.90;-2.50;98471.00;;;;5070098;28;20426;-72
2023/02/06 08:28:17;;;;;;;4.43;2.50;;;-3.90;99.90;-2.30;98464.00;;;;5069704;28;20419;-72
2023/02/06 08:31:12;;;;;;;4.17;2.67;;;-3.60;99.90;-2.20;98474.00;;;;5070344;28;20433;-72
2023/02/06 08:34:02;;;;;;;3.53;3.13;;;-3.20;99.90;-2.30;98483.00;;;;5072444;28;20788;-72
2023/02/06 08:36:51;;;;;;;4.30;2.53;;;-3.20;99.90;-2.10;98481.00;;;;5069062;28;20528;-72
2023/02/06 08:39:40;;;;;;;2.63;2.43;;;-3.30;99.90;-2.00;98486.00;;;;5068092;28;20426;-71
2023/02/06 08:42:28;;;;;;;4.00;2.90;;;-3.10;99.90;-1.90;98481.00;;;;5069691;28;20450;-72
2023/02/06 08:45:17;;;;;;;3.73;3.37;;;-3.00;99.90;-1.90;98474.00;;;;5070310;28;20445;-73
2023/02/06 08:48:06;;;;;;;2.97;2.33;;;-3.00;99.90;-2.00;98470.00;;;;5069493;28;20952;-73
2023/02/06 08:51:04;;;;;;;4.27;2.53;;;-2.90;99.90;-1.60;98471.00;;;;5070790;28;20430;-73
2023/02/06 08:53:56;;;;;;;3.10;2.27;;;-2.90;99.90;-1.30;98472.00;;;;5069956;28;20454;-72
2023/02/06 08:56:45;;;;;;;4.07;2.13;;;-2.70;99.90;-1.70;98469.00;;;;5070210;28;20925;-72
2023/02/06 08:59:33;;;;;;;4.87;3.17;;;-2.50;99.90;-1.30;98471.00;;;;5068804;28;20430;-72
2023/02/06 09:02:22;;;;;;;3.80;3.43;;;-2.40;99.90;-1.40;98483.00;;;;5069350;28;20446;-72
2023/02/06 09:05:11;;;;;;;7.73;3.00;;;-2.40;99.90;-1.20;98482.00;;;;5070308;28;20960;-72
2023/02/06 09:08:01;;;;;;;3.50;2.70;;;-1.70;99.90;-1.00;98484.00;;;;5057034;28;20430;-72
2023/02/06 09:10:50;;;;;;;2.37;2.17;;;-2.30;99.90;-0.60;98480.00;;;;5069683;28;20437;-73
2023/02/06 09:13:39;;;;;;;11.00;4.63;;;-2.10;99.90;-0.20;98496.00;;;;5069055;28;20455;-73
2023/02/06 09:16:32;;;;;;;2.90;2.60;;;-1.90;99.90;-0.20;98496.00;;;;5069982;28;20477;-72
2023/02/06 09:19:20;;;;;;;5.73;3.93;;;-1.70;99.90;-0.10;98506.00;;;;5069111;28;20425;-72
2023/02/06 09:22:09;;;;;;;8.73;3.27;;;-1.50;99.90;-0.50;98492.00;;;;5069259;28;20829;-73
2023/02/06 09:24:59;;;;;;;4.63;3.40;;;-1.40;99.90;-0.10;98496.00;;;;5068224;28;20453;-73
2023/02/06 09:27:48;;;;;;;4.73;3.73;;;-1.30;99.90;0.70;98507.00;;;;5068680;28;20228;-72
2023/02/06 09:30:37;;;;;;;7.40;3.57;;;-1.10;99.90;0.00;98502.00;;;;5069095;28;20426;-75
2023/02/06 09:33:26;;;;;;;8.83;4.07;;;-0.90;99.90;0.30;98491.00;;;;5068501;28;20450;-74
2023/02/06 09:36:16;;;;;;;6.37;4.33;;;-0.80;99.90;0.30;98497.00;;;;5066765;28;20993;-74
2023/02/06 09:39:08;;;;;;;6.87;4.53;;;-0.70;99.90;0.00;98495.00;;;;5068648;28;20454;-73
2023/02/06 09:42:05;;;;;;;6.20;4.53;;;-0.80;99.90;0.30;98490.00;;;;5068413;28;20430;-74
2023/02/06 09:45:02;;;;;;;4.83;4.00;;;-0.70;99.90;0.10;98489.00;;;;5068757;28;20816;-72
2023/02/06 09:47:56;;;;;;;6.43;4.27;;;-0.80;99.90;-0.20;98482.00;;;;5068262;28;20465;-72
2023/02/06 09:50:57;;;;;;;6.37;4.73;;;-0.80;99.90;0.00;98493.00;;;;5069658;28;20476;-73
2023/02/06 09:53:57;;;;;;;8.67;5.37;;;-0.90;99.90;0.30;98487.00;;;;5072737;28;20450;-73
2023/02/06 09:56:54;;;;;;;8.07;5.63;;;-0.90;99.90;-0.10;98488.00;;;;5072962;28;20564;-72
2023/02/06 09:59:51;;;;;;;8.33;5.10;;;-1.00;99.90;0.50;98485.00;;;;5072625;28;20423;-73
2023/02/06 10:03:10;;;;;;;6.27;5.30;;;-0.90;99.90;0.60;98473.00;;;;5072024;28;20880;-71
2023/02/06 10:06:14;;;;;;;5.93;4.33;;;-0.70;99.90;1.20;98487.00;;;;5071921;28;20446;-72
2023/02/06 10:09:08;;;;;;;6.73;5.60;;;-0.40;99.90;1.10;98474.00;;;;5071379;28;20897;-73
2023/02/06 10:12:03;;;;;;;4.77;3.73;;;-0.30;99.90;1.00;98476.00;;;;5074512;28;20459;-73
2023/02/06 10:14:58;;;;;;;6.47;4.77;;;-0.10;99.90;0.80;98466.00;;;;5079271;28;20424;-74
2023/02/06 10:17:54;;;;;;;12.33;4.77;;;0.00;99.90;1.40;98470.00;;;;5079864;28;20438;-73
2023/02/06 10:20:51;;;;;;;9.50;7.00;;;0.00;99.90;1.70;98466.00;;;;5071765;28;20979;-73
2023/02/06 10:23:45;;;;;;;6.93;5.57;;;0.20;99.90;1.50;98466.00;;;;5079758;28;20968;-74
2023/02/06 10:26:40;;;;;;;8.53;4.70;;;0.30;99.90;1.10;98457.00;;;;5071315;28;20422;-73
2023/02/06 10:29:31;;;;;;;13.17;4.50;;;0.40;99.90;0.90;98449.00;;;;5071836;28;20441;-72
2023/02/06 10:32:36;;;;;;;4.53;3.70;;;0.40;99.90;1.00;98441.00;;;;5072070;28;20499;-75
2023/02/06 10:35:46;;;;;;;7.93;4.40;;;0.70;99.90;0.20;98427.00;;;;5068750;28;20457;-72
2023/02/06 10:39:11;;;;;;;7.43;4.17;;;-0.10;99.90;1.50;98433.00;;;;5076968;28;20531;-73
2023/02/06 10:42:07;;;;;;;7.27;4.90;;;0.80;99.90;2.20;98431.00;;;;5071556;28;20446;-74
2023/02/06 10:45:03;;;;;;;7.37;5.43;;;0.80;99.90;1.50;98429.00;;;;5071013;28;20446;-76
2023/02/06 10:48:19;;;;;;;5.77;4.27;;;1.30;99.90;2.40;98434.00;;;;5071724;28;20959;-75
2023/02/06 10:51:17;;;;;;;7.97;5.30;;;1.60;99.90;3.10;98422.00;;;;5071073;28;20880;-76
2023/02/06 10:54:16;;;;;;;8.87;4.07;;;2.50;99.90;3.40;98422.00;;;;5071891;28;20479;-76
2023/02/06 10:57:12;;;;;;;8.67;5.30;;;2.30;99.90;4.60;98421.00;;;;5067866;28;20470;-76
2023/02/06 11:00:03;;;;;;;7.33;4.70;;;;;4.70;98429.00;;;;5071288;28;20422;-74
2023/02/06 11:02:55;;;;;;;6.33;4.77;;;4.40;92.80;4.50;98434.00;;;;5071513;28;20462;-75
2023/02/06 11:05:57;;;;;;;8.17;5.97;;;4.50;91.20;3.80;98417.00;;;;5071397;28;20418;-75
2023/02/06 11:08:47;;;;;;;6.17;5.20;;;4.40;88.80;3.90;98398.00;;;;5069774;28;20449;-74
2023/02/06 11:11:39;;;;;;;8.87;5.23;;;4.20;88.70;4.10;98407.00;;;;5066895;28;20435;-74
2023/02/06 11:14:32;;;;;;;7.20;5.50;;;4.20;88.50;4.40;98407.00;;;;5069136;28;20426;-75
2023/02/06 11:17:23;;;;;;;7.97;5.57;;;4.10;89.60;4.00;98401.00;;;;5070570;28;20458;-74
2023/02/06 11:20:22;;;;;;;9.17;5.70;;;4.00;88.30;3.20;98388.00;;;;5071752;28;20435;-74
2023/02/06 11:23:19;;;;;;;5.23;4.83;;;3.60;88.40;3.80;98396.00;;;;5070955;28;20819;-74
2023/02/06 11:26:12;;;;;;;6.60;5.47;;;3.40;89.80;3.40;98395.00;;;;5062232;28;20426;-73
2023/02/06 11:29:14;;;;;;;8.10;5.50;;;3.20;90.20;3.50;98394.00;;;;5070778;28;20426;-73
2023/02/06 11:32:06;;;;;;;7.83;6.03;;;2.90;90.40;3.60;98376.00;;;;5071113;28;20801;-73
2023/02/06 11:35:00;;;;;;;10.47;6.23;;;2.80;90.70;3.10;98374.00;;;;5076644;28;20779;-73
2023/02/06 11:37:53;;;;;;;8.00;5.27;;;2.70;90.60;3.50;98383.00;;;;5070085;28;20437;-71
2023/02/06 11:40:44;;;;;;;9.37;6.73;;;2.70;91.30;3.20;98373.00;;;;5070762;28;20430;-75
2023/02/06 11:43:48;;;;;;;5.97;5.33;;;2.70;90.70;3.50;98377.00;;;;5070088;28;20515;-73
2023/02/06 11:46:37;;;;;;;9.40;6.00;;;2.50;91.50;3.40;98369.00;;;;5069840;28;20441;-73
2023/02/06 11:49:28;;;;;;;9.00;5.50;;;2.60;91.30;3.40;98349.00;;;;5069090;28;20836;-72
2023/02/06 11:52:30;;;;;;;8.10;7.10;;;2.60;91.70;3.60;98358.00;;;;5067656;28;20468;-72
2023/02/06 11:55:26;;;;;;;8.83;6.90;;;2.70;91.70;4.10;98359.00;;;;5069589;28;20442;-70
2023/02/06 11:58:25;;;;;;;11.07;6.30;;;2.90;91.50;3.30;98357.00;;;;5068806;28;20991;-72
2023/02/06 12:01:21;;;;;;;6.67;6.00;;;2.90;90.70;3.70;98353.00;;;;5070243;28;20442;-72
2023/02/06 12:04:22;;;;;;;6.63;5.70;;;2.70;91.10;4.10;98343.00;;;;5069824;28;20438;-72
2023/02/06 12:07:18;;;;;;;6.80;5.63;;;2.90;91.00;4.20;98342.00;;;;5070097;28;20430;-71
2023/02/06 12:10:15;;;;;;;7.57;6.77;;;3.10;90.90;4.30;98337.00;;;;5069514;28;20415;-71
2023/02/06 12:13:14;;;;;;;7.43;6.73;;;3.40;89.90;5.70;98337.00;;;;5065348;28;20239;-71
2023/02/06 12:16:08;;;;;;;8.70;6.50;;;3.70;90.60;5.10;98334.00;;;;5053725;28;20251;-71
2023/02/06 12:19:00;;;;;;;7.20;5.53;;;4.00;88.70;5.40;98327.00;;;;5067344;28;20200;-72
2023/02/06 12:21:52;;;;;;;6.90;6.13;;;4.30;87.20;6.30;98335.00;;;;5069693;28;20219;-71
2023/02/06 12:24:46;;;;;;;10.07;5.73;;;4.60;87.60;5.70;98346.00;;;;5068020;28;20212;-72
2023/02/06 12:27:39;;;;;;;7.27;5.93;;;4.70;85.00;5.10;98352.00;;;;5069050;28;20214;-73
2023/02/06 12:30:37;;;;;;;8.13;6.03;;;4.60;84.00;4.40;98349.00;;;;5067078;28;20847;-74
2023/02/06 12:33:35;;;;;;;8.50;5.27;;;4.20;83.70;3.90;98347.00;;;;5068641;28;20223;-73
2023/02/06 12:36:29;;;;;;;10.00;4.77;;;3.90;84.00;3.80;98338.00;;;;5067250;28;20224;-75
2023/02/06 12:39:21;;;;;;;8.73;5.73;;;3.50;84.20;4.00;98341.00;;;;5069371;28;20207;-75
2023/02/06 12:42:36;;;;;;;16.27;6.23;;;3.20;85.50;3.00;98329.00;;;;5069660;28;20224;-76
2023/02/06 12:45:40;;;;;;;7.87;6.57;;;2.80;85.40;3.60;98332.00;;;;5059596;28;20683;-74
2023/02/06 12:48:39;;;;;;;7.17;6.47;;;2.70;87.10;3.50;98329.00;;;;5058880;28;20457;-74
2023/02/06 12:51:35;;;;;;;9.10;6.67;;;2.70;87.00;3.70;98323.00;;;;5067489;28;20427;-74